createdAt,value
2019-04-25T00:01:23.818Z,18.23
2019-04-25T00:03:01.276Z,19.40
2019-04-25T00:04:38.704Z,13.97
2019-04-25T00:06:15.249Z,18.13
2019-04-25T00:07:51.485Z,20.83
2019-04-25T00:09:29.550Z,14.97
2019-04-25T00:11:06.834Z,16.90
2019-04-25T00:12:44.471Z,17.77
2019-04-25T00:14:22.580Z,18.73
2019-04-25T00:15:59.032Z,14.33
2019-04-25T00:17:35.358Z,21.73
2019-04-25T00:19:12.399Z,15.17
2019-04-25T00:20:56.022Z,16.60
2019-04-25T00:22:34.324Z,18.97
2019-04-25T00:24:14.993Z,17.63
2019-04-25T00:25:53.834Z,17.03
2019-04-25T00:27:32.020Z,16.67
2019-04-25T00:29:08.819Z,17.10
2019-04-25T00:30:46.070Z,17.47
2019-04-25T00:32:22.396Z,18.77
2019-04-25T00:33:58.802Z,17.67
2019-04-25T00:35:35.573Z,15.50
2019-04-25T00:37:12.267Z,17.67
2019-04-25T00:38:50.268Z,20.93
2019-04-25T00:40:28.139Z,14.80
2019-04-25T00:42:05.110Z,21.03
2019-04-25T00:43:42.960Z,17.27
2019-04-25T00:45:19.362Z,18.30
2019-04-25T00:46:56.806Z,15.10
2019-04-25T00:48:33.329Z,15.47
2019-04-25T00:50:09.952Z,17.73
2019-04-25T00:51:46.354Z,18.23
2019-04-25T00:53:22.354Z,21.23
2019-04-25T00:54:59.166Z,15.50
2019-04-25T00:56:35.432Z,17.63
2019-04-25T00:58:19.637Z,18.30
2019-04-25T00:59:57.642Z,19.53
2019-04-25T01:01:49.306Z,17.63
2019-04-25T01:03:31.663Z,18.33
2019-04-25T01:05:08.845Z,15.73
2019-04-25T01:06:45.470Z,20.43
2019-04-25T01:08:22.311Z,18.17
2019-04-25T01:09:58.730Z,19.10
2019-04-25T01:11:35.302Z,19.40
2019-04-25T01:13:11.639Z,18.43
2019-04-25T01:14:48.394Z,17.03
2019-04-25T01:16:25.218Z,17.03
2019-04-25T01:18:01.700Z,17.73
2019-04-25T01:19:38.047Z,20.70
2019-04-25T01:21:14.564Z,15.40
2019-04-25T01:22:51.368Z,20.10
2019-04-25T01:24:28.077Z,15.43
2019-04-25T01:26:04.321Z,18.37
2019-04-25T01:27:40.859Z,19.93
2019-04-25T01:29:17.371Z,15.17
2019-04-25T01:30:55.029Z,21.07
2019-04-25T01:32:36.028Z,16.93
2019-04-25T01:34:14.242Z,20.93
2019-04-25T01:35:57.991Z,19.60
2019-04-25T01:37:36.964Z,21.53
2019-04-25T01:39:22.042Z,16.93
2019-04-25T01:40:58.145Z,16.60
2019-04-25T01:42:43.814Z,16.93
2019-04-25T01:44:28.101Z,18.50
2019-04-25T01:46:04.679Z,17.30
2019-04-25T01:47:41.287Z,19.30
2019-04-25T01:49:17.634Z,17.37
2019-04-25T01:50:54.604Z,17.97
2019-04-25T01:52:33.459Z,17.97
2019-04-25T01:54:09.930Z,17.60
2019-04-25T01:55:56.047Z,17.63
2019-04-25T01:57:24.467Z,17.63
2019-04-25T01:59:01.590Z,19.87
2019-04-25T02:00:39.994Z,26.13
2019-04-25T02:02:18.052Z,15.90
2019-04-25T02:03:55.472Z,18.47
2019-04-25T02:05:33.704Z,19.00
2019-04-25T02:07:10.673Z,19.43
2019-04-25T02:08:47.075Z,23.07
2019-04-25T02:10:23.504Z,18.00
2019-04-25T02:12:04.880Z,22.70
2019-04-25T02:13:41.438Z,22.73
2019-04-25T02:15:19.476Z,16.17
2019-04-25T02:16:56.953Z,22.67
2019-04-25T02:18:33.625Z,21.37
2019-04-25T02:20:10.650Z,20.97
2019-04-25T02:21:47.112Z,20.27
2019-04-25T02:23:24.070Z,18.17
2019-04-25T02:25:01.045Z,20.77
2019-04-25T02:26:37.524Z,18.60
2019-04-25T02:28:17.144Z,21.57
2019-04-25T02:29:55.211Z,17.77
2019-04-25T02:31:31.765Z,21.97
2019-04-25T02:33:09.251Z,18.93
2019-04-25T02:34:46.978Z,22.00
2019-04-25T02:36:24.720Z,20.13
2019-04-25T02:38:04.844Z,25.67
2019-04-25T02:39:39.426Z,19.87
2019-04-25T02:41:15.917Z,18.90
2019-04-25T02:42:55.801Z,17.97
2019-04-25T02:44:34.333Z,15.30
2019-04-25T02:46:17.882Z,24.80
2019-04-25T02:48:14.171Z,22.53
2019-04-25T02:49:58.551Z,20.47
2019-04-25T02:51:51.408Z,19.43
2019-04-25T02:53:47.886Z,22.07
2019-04-25T02:55:35.041Z,17.00
2019-04-25T02:57:05.208Z,22.40
2019-04-25T02:58:40.638Z,23.83
2019-04-25T03:00:26.380Z,21.77
2019-04-25T03:02:05.411Z,22.33
2019-04-25T03:03:41.172Z,18.60
2019-04-25T03:05:17.592Z,19.50
2019-04-25T03:06:55.508Z,18.93
2019-04-25T03:08:32.410Z,23.23
2019-04-25T03:10:14.482Z,21.70
2019-04-25T03:11:49.900Z,21.27
2019-04-25T03:13:26.323Z,19.60
2019-04-25T03:15:05.281Z,19.70
2019-04-25T03:16:40.770Z,21.87
2019-04-25T03:18:19.077Z,19.40
2019-04-25T03:20:11.474Z,23.47
2019-04-25T03:21:55.001Z,20.73
2019-04-25T03:23:31.350Z,29.13
2019-04-25T03:25:11.600Z,22.97
2019-04-25T03:26:46.685Z,20.27
2019-04-25T03:28:23.904Z,21.90
2019-04-25T03:30:01.976Z,19.23
2019-04-25T03:31:40.131Z,19.17
2019-04-25T03:33:19.765Z,18.97
2019-04-25T03:34:54.877Z,20.37
2019-04-25T03:36:31.387Z,18.07
2019-04-25T03:38:08.398Z,18.43
2019-04-25T03:39:45.116Z,18.23
2019-04-25T03:41:21.487Z,21.53
2019-04-25T03:42:57.752Z,23.37
2019-04-25T03:44:34.523Z,22.47
2019-04-25T03:46:10.909Z,24.90
2019-04-25T03:47:47.252Z,21.17
2019-04-25T03:49:23.888Z,24.47
2019-04-25T03:51:02.221Z,22.77
2019-04-25T03:52:38.830Z,21.40
2019-04-25T03:54:15.455Z,18.03
2019-04-25T03:55:51.746Z,23.47
2019-04-25T03:57:28.202Z,21.77
2019-04-25T03:59:06.027Z,21.57
2019-04-25T04:00:44.730Z,20.83
2019-04-25T04:02:20.979Z,17.97
2019-04-25T04:03:57.375Z,20.87
2019-04-25T04:05:34.555Z,21.50
2019-04-25T04:07:11.418Z,21.87
2019-04-25T04:08:48.603Z,20.07
2019-04-25T04:10:24.874Z,23.83
2019-04-25T04:12:01.275Z,22.83
2019-04-25T04:13:37.651Z,20.33
2019-04-25T04:15:15.623Z,15.37
2019-04-25T04:17:14.696Z,23.47
2019-04-25T04:18:51.499Z,16.57
2019-04-25T04:20:29.482Z,17.23
2019-04-25T04:22:11.168Z,15.40
2019-04-25T04:23:49.418Z,21.57
2019-04-25T04:25:25.883Z,15.67
2019-04-25T04:27:10.645Z,17.93
2019-04-25T04:28:47.247Z,20.87
2019-04-25T04:30:24.147Z,24.23
2019-04-25T04:32:00.582Z,20.47
2019-04-25T04:33:36.993Z,22.33
2019-04-25T04:35:14.751Z,17.97
2019-04-25T04:36:51.455Z,18.87
2019-04-25T04:38:27.848Z,17.87
2019-04-25T04:40:05.656Z,16.57
2019-04-25T04:41:43.384Z,18.67
2019-04-25T04:43:21.316Z,22.43
2019-04-25T04:44:57.500Z,18.10
2019-04-25T04:46:34.117Z,17.60
2019-04-25T04:48:10.414Z,18.47
2019-04-25T04:49:46.793Z,22.33
2019-04-25T04:51:23.438Z,17.90
2019-04-25T04:53:00.302Z,16.50
2019-04-25T04:54:36.576Z,20.53
2019-04-25T04:56:15.059Z,19.90
2019-04-25T04:57:51.059Z,19.43
2019-04-25T04:59:27.319Z,21.33
2019-04-25T05:01:03.744Z,22.17
2019-04-25T05:02:58.114Z,22.57
2019-04-25T05:04:43.483Z,27.73
2019-04-25T05:06:37.931Z,18.40
2019-04-25T05:08:25.315Z,19.17
2019-04-25T05:10:03.214Z,16.47
2019-04-25T05:11:39.828Z,22.77
2019-04-25T05:13:16.810Z,18.23
2019-04-25T05:14:54.050Z,21.10
2019-04-25T05:16:30.487Z,19.70
2019-04-25T05:18:06.914Z,20.07
2019-04-25T05:19:43.463Z,24.70
2019-04-25T05:21:20.380Z,16.63
2019-04-25T05:22:56.960Z,26.63
2019-04-25T05:24:33.870Z,21.67
2019-04-25T05:26:10.427Z,19.83
2019-04-25T05:27:59.524Z,21.93
2019-04-25T05:29:26.681Z,19.50
2019-04-25T05:31:04.805Z,20.27
2019-04-25T05:32:44.222Z,20.70
2019-04-25T05:34:21.699Z,22.07
2019-04-25T05:35:58.055Z,15.07
2019-04-25T05:37:34.644Z,18.50
2019-04-25T05:39:11.646Z,27.87
2019-04-25T05:40:50.724Z,18.47
2019-04-25T05:42:46.028Z,15.90
2019-04-25T05:44:24.506Z,18.20
2019-04-25T05:46:02.926Z,18.53
2019-04-25T05:47:41.009Z,20.20
2019-04-25T05:49:17.586Z,19.53
2019-04-25T05:50:54.030Z,16.67
2019-04-25T05:52:30.315Z,16.90
2019-04-25T05:54:06.943Z,22.83
2019-04-25T05:55:44.130Z,18.43
2019-04-25T05:57:21.737Z,17.30
2019-04-25T05:58:58.065Z,20.10
2019-04-25T06:00:34.426Z,19.03
2019-04-25T06:02:10.940Z,18.50
2019-04-25T06:03:47.338Z,19.07
2019-04-25T06:05:26.416Z,19.57
2019-04-25T06:07:02.015Z,18.47
2019-04-25T06:08:40.030Z,20.23
2019-04-25T06:10:21.655Z,21.70
2019-04-25T06:12:03.097Z,15.80
2019-04-25T06:13:43.410Z,23.50
2019-04-25T06:15:22.296Z,20.97
2019-04-25T06:17:17.283Z,17.10
2019-04-25T06:18:55.673Z,17.80
2019-04-25T06:20:34.321Z,20.73
2019-04-25T06:22:23.366Z,18.50
2019-04-25T06:24:18.312Z,21.47
2019-04-25T06:25:56.641Z,17.87
2019-04-25T06:27:35.269Z,20.17
2019-04-25T06:29:13.315Z,19.87
2019-04-25T06:30:50.568Z,17.63
2019-04-25T06:32:27.379Z,20.40
2019-04-25T06:34:04.550Z,19.00
2019-04-25T06:35:41.447Z,19.37
2019-04-25T06:37:18.185Z,19.60
2019-04-25T06:38:54.812Z,21.10
2019-04-25T06:40:32.443Z,17.90
2019-04-25T06:42:09.766Z,17.63
2019-04-25T06:43:48.047Z,20.30
2019-04-25T06:45:44.332Z,18.60
2019-04-25T06:47:24.795Z,18.73
2019-04-25T06:49:09.535Z,16.60
2019-04-25T06:50:46.177Z,20.50
2019-04-25T06:52:26.228Z,20.70
2019-04-25T06:54:00.775Z,20.97
2019-04-25T06:55:37.335Z,14.83
2019-04-25T06:57:14.756Z,21.70
2019-04-25T06:58:51.483Z,17.03
2019-04-25T07:00:29.748Z,21.43
2019-04-25T07:02:06.679Z,18.27
2019-04-25T07:03:44.200Z,14.80
2019-04-25T07:05:30.767Z,13.33
2019-04-25T07:07:10.461Z,21.57
2019-04-25T07:08:39.719Z,16.83
2019-04-25T07:10:17.471Z,16.53
2019-04-25T07:11:53.975Z,18.27
2019-04-25T07:13:30.678Z,18.00
2019-04-25T07:15:13.775Z,22.83
2019-04-25T07:16:50.440Z,17.97
2019-04-25T07:18:30.511Z,23.13
2019-04-25T07:20:09.757Z,17.63
2019-04-25T07:21:46.334Z,20.43
2019-04-25T07:23:23.690Z,27.10
2019-04-25T07:25:01.514Z,19.87
2019-04-25T07:26:44.295Z,21.87
2019-04-25T07:28:31.222Z,22.40
2019-04-25T07:30:27.265Z,18.77
2019-04-25T07:32:05.876Z,19.50
2019-04-25T07:33:49.817Z,19.43
2019-04-25T07:35:26.721Z,18.70
2019-04-25T07:37:03.525Z,21.70
2019-04-25T07:38:40.389Z,18.77
2019-04-25T07:40:18.022Z,21.70
2019-04-25T07:41:55.468Z,23.10
2019-04-25T07:43:34.127Z,20.83
2019-04-25T07:45:12.077Z,27.20
2019-04-25T07:46:48.731Z,22.30
2019-04-25T07:48:26.689Z,18.37
2019-04-25T07:50:04.088Z,28.83
2019-04-25T07:51:41.072Z,21.10
2019-04-25T07:53:17.613Z,19.37
2019-04-25T07:54:54.423Z,26.43
2019-04-25T07:56:31.460Z,14.33
2019-04-25T07:58:08.212Z,20.77
2019-04-25T07:59:44.843Z,22.17
2019-04-25T08:01:23.536Z,20.93
2019-04-25T08:03:00.509Z,21.30
2019-04-25T08:04:37.116Z,22.53
2019-04-25T08:06:13.974Z,23.73
2019-04-25T08:07:50.720Z,18.63
2019-04-25T08:09:29.546Z,18.57
2019-04-25T08:11:09.636Z,22.53
2019-04-25T08:12:47.518Z,23.17
2019-04-25T08:14:35.139Z,17.00
2019-04-25T08:16:14.632Z,22.23
2019-04-25T08:17:54.101Z,20.17
2019-04-25T08:19:31.058Z,31.73
2019-04-25T08:21:07.872Z,25.40
2019-04-25T08:22:56.231Z,29.87
2019-04-25T08:24:24.058Z,22.37
2019-04-25T08:26:00.479Z,17.90
2019-04-25T08:27:37.025Z,18.50
2019-04-25T08:29:13.745Z,25.27
2019-04-25T08:30:50.459Z,22.27
2019-04-25T08:32:27.199Z,24.40
2019-04-25T08:34:03.737Z,26.80
2019-04-25T08:35:40.563Z,23.63
2019-04-25T08:37:18.991Z,19.40
2019-04-25T08:38:54.982Z,29.47
2019-04-25T08:40:33.004Z,21.80
2019-04-25T08:42:09.795Z,22.37
2019-04-25T08:43:46.321Z,24.90
2019-04-25T08:45:24.452Z,20.60
2019-04-25T08:47:00.997Z,17.73
2019-04-25T08:48:55.486Z,20.87
2019-04-25T08:50:41.055Z,20.90
2019-04-25T08:52:18.161Z,21.57
2019-04-25T08:54:06.019Z,15.50
2019-04-25T08:55:47.518Z,23.97
2019-04-25T08:57:42.505Z,19.27
2019-04-25T08:59:42.554Z,22.40
2019-04-25T09:01:17.703Z,24.90
2019-04-25T09:02:56.004Z,25.37
2019-04-25T09:04:36.839Z,22.37
2019-04-25T09:06:14.123Z,21.03
2019-04-25T09:07:50.807Z,22.43
2019-04-25T09:09:27.622Z,25.57
2019-04-25T09:11:06.859Z,23.80
2019-04-25T09:12:44.261Z,19.43
2019-04-25T09:14:21.921Z,27.90
2019-04-25T09:15:58.500Z,24.30
2019-04-25T09:17:35.836Z,25.07
2019-04-25T09:19:33.352Z,24.17
2019-04-25T09:21:10.826Z,16.63
2019-04-25T09:22:47.395Z,23.27
2019-04-25T09:24:24.623Z,19.57
2019-04-25T09:26:05.545Z,22.87
2019-04-25T09:27:43.792Z,28.40
2019-04-25T09:29:20.537Z,20.70
2019-04-25T09:30:57.188Z,28.60
2019-04-25T09:32:35.546Z,18.43
2019-04-25T09:34:12.118Z,21.00
2019-04-25T09:35:48.941Z,27.90
2019-04-25T09:37:25.163Z,24.27
2019-04-25T09:39:03.795Z,21.40
2019-04-25T09:40:41.837Z,26.87
2019-04-25T09:42:18.528Z,19.40
2019-04-25T09:43:56.517Z,20.60
2019-04-25T09:45:35.984Z,25.27
2019-04-25T09:47:13.699Z,23.87
2019-04-25T09:49:00.856Z,28.80
2019-04-25T09:50:39.720Z,31.67
2019-04-25T09:52:17.741Z,25.47
2019-04-25T09:53:55.991Z,20.60
2019-04-25T09:55:34.046Z,21.27
2019-04-25T09:57:17.931Z,18.77
2019-04-25T09:58:58.679Z,22.33
2019-04-25T10:00:38.097Z,19.93
2019-04-25T10:02:16.919Z,19.43
2019-04-25T10:03:54.371Z,23.67
2019-04-25T10:05:30.937Z,20.27
2019-04-25T10:07:07.851Z,20.37
2019-04-25T10:08:46.111Z,19.67
2019-04-25T10:10:24.106Z,22.47
2019-04-25T10:12:00.641Z,29.23
2019-04-25T10:13:38.509Z,20.73
2019-04-25T10:15:25.193Z,25.70
2019-04-25T10:17:03.799Z,25.83
2019-04-25T10:18:41.376Z,18.43
2019-04-25T10:20:19.666Z,23.10
2019-04-25T10:21:56.571Z,20.87
2019-04-25T10:23:34.219Z,23.67
2019-04-25T10:25:11.118Z,23.90
2019-04-25T10:26:48.145Z,28.87
2019-04-25T10:28:25.579Z,20.43
2019-04-25T10:30:15.738Z,19.87
2019-04-25T10:31:40.728Z,23.50
2019-04-25T10:33:19.429Z,21.97
2019-04-25T10:34:55.702Z,20.30
2019-04-25T10:36:33.672Z,17.30
2019-04-25T10:38:09.773Z,26.13
2019-04-25T10:39:46.378Z,21.03
2019-04-25T10:41:24.477Z,21.67
2019-04-25T10:43:03.910Z,22.23
2019-04-25T10:44:40.205Z,20.40
2019-04-25T10:46:17.201Z,19.00
2019-04-25T10:47:55.271Z,27.60
2019-04-25T10:49:34.447Z,20.80
2019-04-25T10:51:11.099Z,25.33
2019-04-25T10:52:48.384Z,21.27
2019-04-25T10:54:24.853Z,21.20
2019-04-25T10:56:01.554Z,29.23
2019-04-25T10:57:37.927Z,27.57
2019-04-25T10:59:14.646Z,46.07
2019-04-25T11:00:52.998Z,33.20
2019-04-25T11:02:30.314Z,26.47
2019-04-25T11:04:09.380Z,27.23
2019-04-25T11:05:45.805Z,27.97
2019-04-25T11:07:23.489Z,35.80
2019-04-25T11:08:59.999Z,21.90
2019-04-25T11:10:36.508Z,32.30
2019-04-25T11:12:14.995Z,19.97
2019-04-25T11:13:50.940Z,19.63
2019-04-25T11:15:28.930Z,18.97
2019-04-25T11:17:05.734Z,19.63
2019-04-25T11:18:44.170Z,19.17
2019-04-25T11:20:30.215Z,23.27
2019-04-25T11:22:09.393Z,21.07
2019-04-25T11:23:47.597Z,23.03
2019-04-25T11:25:24.408Z,28.50
2019-04-25T11:27:00.924Z,16.47
2019-04-25T11:28:38.838Z,16.83
2019-04-25T11:30:17.337Z,23.40
2019-04-25T11:32:13.248Z,27.17
2019-04-25T11:33:51.563Z,22.97
2019-04-25T11:35:28.582Z,26.23
2019-04-25T11:37:06.052Z,20.27
2019-04-25T11:38:42.672Z,23.93
2019-04-25T11:40:34.637Z,24.07
2019-04-25T11:42:11.198Z,17.57
2019-04-25T11:43:48.678Z,26.07
2019-04-25T11:45:26.184Z,18.17
2019-04-25T11:47:03.848Z,20.70
2019-04-25T11:48:44.191Z,20.10
2019-04-25T11:50:20.499Z,22.83
2019-04-25T11:51:57.106Z,20.73
2019-04-25T11:53:34.645Z,19.30
2019-04-25T11:55:11.614Z,20.43
2019-04-25T11:56:48.636Z,17.60
2019-04-25T11:58:25.219Z,18.90
2019-04-25T12:00:01.726Z,20.47
2019-04-25T12:01:37.991Z,22.07
2019-04-25T12:03:14.914Z,17.60
2019-04-25T12:04:54.887Z,16.30
2019-04-25T12:06:30.511Z,13.47
2019-04-25T12:08:07.416Z,13.53
2019-04-25T12:09:45.818Z,16.90
2019-04-25T12:11:23.422Z,13.50
2019-04-25T12:12:59.962Z,15.23
2019-04-25T12:14:36.416Z,17.98
2019-04-25T12:16:14.425Z,13.90
2019-04-25T12:17:51.611Z,18.47
2019-04-25T12:19:35.808Z,18.57
2019-04-25T12:21:06.287Z,16.37
2019-04-25T12:22:44.542Z,23.03
2019-04-25T12:24:20.707Z,31.07
2019-04-25T12:25:57.635Z,28.27
2019-04-25T12:27:34.356Z,30.17
2019-04-25T12:29:10.758Z,19.80
2019-04-25T12:30:47.773Z,15.40
2019-04-25T12:32:24.404Z,17.47
2019-04-25T12:34:00.806Z,19.23
2019-04-25T12:35:37.442Z,16.07
2019-04-25T12:37:13.947Z,27.07
2019-04-25T12:38:51.119Z,14.57
2019-04-25T12:40:28.664Z,16.23
2019-04-25T12:42:05.158Z,20.33
2019-04-25T12:43:43.907Z,21.20
2019-04-25T12:45:22.207Z,21.13
2019-04-25T12:47:05.843Z,22.70
2019-04-25T12:48:43.227Z,28.00
2019-04-25T12:50:19.679Z,18.77
2019-04-25T12:51:59.034Z,14.43
2019-04-25T12:53:35.438Z,34.37
2019-04-25T12:55:13.974Z,15.13
2019-04-25T12:56:50.260Z,18.30
2019-04-25T12:58:26.864Z,27.33
2019-04-25T13:00:04.236Z,21.73
2019-04-25T13:01:41.125Z,39.00
2019-04-25T13:03:17.459Z,24.00
2019-04-25T13:04:55.419Z,24.13
2019-04-25T13:06:33.748Z,16.80
2019-04-25T13:08:09.950Z,15.57
2019-04-25T13:09:48.312Z,20.20
2019-04-25T13:11:25.570Z,20.00
2019-04-25T13:13:03.910Z,16.60
2019-04-25T13:14:40.546Z,22.83
2019-04-25T13:16:16.967Z,40.07
2019-04-25T13:17:54.459Z,17.60
2019-04-25T13:19:30.936Z,20.30
2019-04-25T13:21:07.735Z,13.83
2019-04-25T13:22:44.448Z,11.40
2019-04-25T13:24:20.955Z,19.87
2019-04-25T13:25:57.370Z,19.17
2019-04-25T13:27:47.323Z,17.37
2019-04-25T13:29:36.884Z,14.77
2019-04-25T13:31:14.858Z,14.00
2019-04-25T13:33:09.441Z,16.53
2019-04-25T13:34:47.542Z,14.10
2019-04-25T13:36:25.583Z,17.93
2019-04-25T13:38:01.968Z,18.17
2019-04-25T13:39:38.332Z,20.17
2019-04-25T13:41:14.743Z,14.50
2019-04-25T13:42:53.102Z,14.93
2019-04-25T13:44:31.974Z,16.07
2019-04-25T13:46:08.503Z,16.73
2019-04-25T13:47:44.919Z,15.10
2019-04-25T13:49:22.658Z,19.30
2019-04-25T13:51:04.829Z,17.47
2019-04-25T13:52:43.170Z,23.17
2019-04-25T13:54:20.901Z,18.73
2019-04-25T13:55:58.156Z,11.37
2019-04-25T13:57:34.673Z,13.10
2019-04-25T13:59:11.457Z,13.30
2019-04-25T14:00:48.066Z,16.43
2019-04-25T14:02:24.790Z,15.70
2019-04-25T14:04:01.214Z,17.37
2019-04-25T14:05:38.020Z,19.03
2019-04-25T14:07:14.427Z,19.00
2019-04-25T14:08:50.765Z,13.00
2019-04-25T14:10:28.036Z,18.10
2019-04-25T14:12:05.730Z,17.40
2019-04-25T14:13:41.969Z,12.87
2019-04-25T14:15:20.968Z,18.03
2019-04-25T14:16:59.865Z,13.00
2019-04-25T14:18:38.674Z,14.80
2019-04-25T14:20:17.715Z,13.50
2019-04-25T14:21:55.775Z,17.23
2019-04-25T14:23:32.113Z,26.03
2019-04-25T14:25:09.578Z,14.00
2019-04-25T14:26:46.195Z,13.73
2019-04-25T14:28:23.451Z,17.70
2019-04-25T14:30:00.654Z,18.33
2019-04-25T14:31:44.894Z,15.97
2019-04-25T14:33:15.267Z,21.27
2019-04-25T14:34:52.044Z,17.57
2019-04-25T14:36:28.617Z,15.47
2019-04-25T14:38:05.559Z,18.50
2019-04-25T14:39:41.944Z,12.40
2019-04-25T14:41:18.376Z,12.77
2019-04-25T14:42:54.883Z,16.20
2019-04-25T14:44:31.294Z,14.67
2019-04-25T14:46:07.779Z,15.50
2019-04-25T14:47:44.262Z,15.87
2019-04-25T14:49:21.629Z,14.37
2019-04-25T14:50:58.710Z,16.90
2019-04-25T14:52:35.640Z,17.20
2019-04-25T14:54:13.692Z,17.93
2019-04-25T14:55:55.968Z,15.57
2019-04-25T14:57:33.071Z,15.00
2019-04-25T14:59:09.438Z,13.37
2019-04-25T15:00:47.353Z,21.33
2019-04-25T15:02:25.800Z,23.60
2019-04-25T15:04:02.336Z,23.63
2019-04-25T15:05:41.199Z,18.77
2019-04-25T15:07:16.803Z,17.93
2019-04-25T15:08:53.178Z,24.43
2019-04-25T15:10:30.712Z,31.97
2019-04-25T15:12:07.697Z,25.73
2019-04-25T15:13:44.158Z,18.13
2019-04-25T15:15:20.666Z,18.40
2019-04-25T15:16:57.095Z,16.30
2019-04-25T15:18:45.844Z,16.40
2019-04-25T15:20:11.609Z,16.80
2019-04-25T15:21:48.098Z,23.70
2019-04-25T15:23:25.326Z,19.57
2019-04-25T15:25:01.837Z,19.50
2019-04-25T15:26:40.248Z,22.47
2019-04-25T15:28:16.147Z,23.67
2019-04-25T15:29:52.414Z,23.03
2019-04-25T15:31:30.112Z,21.00
2019-04-25T15:33:07.317Z,23.53
2019-04-25T15:34:48.107Z,19.03
2019-04-25T15:36:29.111Z,16.57
2019-04-25T15:38:07.183Z,19.10
2019-04-25T15:40:02.656Z,16.13
2019-04-25T15:41:43.444Z,14.73
2019-04-25T15:43:26.279Z,12.73
2019-04-25T15:45:11.712Z,14.93
2019-04-25T15:46:49.837Z,16.40
2019-04-25T15:48:26.438Z,15.97
2019-04-25T15:50:04.411Z,12.17
2019-04-25T15:51:41.270Z,11.93
2019-04-25T15:53:17.645Z,13.80
2019-04-25T15:55:06.205Z,13.97
2019-04-25T15:56:32.603Z,17.17
2019-04-25T15:58:09.017Z,15.63
2019-04-25T15:59:45.384Z,15.03
2019-04-25T16:01:22.064Z,14.67
2019-04-25T16:02:58.399Z,14.67
2019-04-25T16:04:34.852Z,14.13
2019-04-25T16:06:11.340Z,14.50
2019-04-25T16:07:47.600Z,14.63
2019-04-25T16:09:24.719Z,15.83
2019-04-25T16:11:01.353Z,19.30
2019-04-25T16:12:37.695Z,14.63
2019-04-25T16:14:14.029Z,14.87
2019-04-25T16:15:50.382Z,13.97
2019-04-25T16:17:28.512Z,15.90
2019-04-25T16:19:05.214Z,17.80
2019-04-25T16:20:41.939Z,17.67
2019-04-25T16:22:18.405Z,16.67
2019-04-25T16:23:55.277Z,14.57
2019-04-25T16:25:31.799Z,15.87
2019-04-25T16:27:08.850Z,13.97
2019-04-25T16:28:45.269Z,18.37
2019-04-25T16:30:23.747Z,13.20
2019-04-25T16:32:01.048Z,14.13
2019-04-25T16:33:37.734Z,17.73
2019-04-25T16:35:14.279Z,14.80
2019-04-25T16:36:50.709Z,14.40
2019-04-25T16:38:27.199Z,14.93
2019-04-25T16:40:04.576Z,15.50
2019-04-25T16:41:42.545Z,14.70
2019-04-25T16:43:20.962Z,14.30
2019-04-25T16:44:57.657Z,13.27
2019-04-25T16:46:34.563Z,11.43
2019-04-25T16:48:11.236Z,18.77
2019-04-25T16:49:47.556Z,15.87
2019-04-25T16:51:24.645Z,14.17
2019-04-25T16:53:01.588Z,14.27
2019-04-25T16:54:38.212Z,12.17
2019-04-25T16:56:14.782Z,19.93
2019-04-25T16:57:51.230Z,14.67
2019-04-25T16:59:27.530Z,20.03
2019-04-25T17:01:05.517Z,20.27
2019-04-25T17:02:45.020Z,24.47
2019-04-25T17:04:21.528Z,26.80
2019-04-25T17:05:59.476Z,31.63
2019-04-25T17:07:36.272Z,32.07
2019-04-25T17:09:13.022Z,26.03
2019-04-25T17:10:49.393Z,32.70
2019-04-25T17:12:26.582Z,32.57
2019-04-25T17:14:04.196Z,29.83
2019-04-25T17:15:58.927Z,28.13
2019-04-25T17:17:40.407Z,33.30
2019-04-25T17:19:21.445Z,32.60
2019-04-25T17:21:05.707Z,33.83
2019-04-25T17:22:42.066Z,33.60
2019-04-25T17:24:18.464Z,33.77
2019-04-25T17:25:54.825Z,36.07
2019-04-25T17:27:31.811Z,28.60
2019-04-25T17:29:10.249Z,25.30
2019-04-25T17:30:48.247Z,27.00
2019-04-25T17:32:50.434Z,27.17
2019-04-25T17:34:21.468Z,26.60
2019-04-25T17:36:02.039Z,22.80
2019-04-25T17:37:43.312Z,25.70
2019-04-25T17:39:25.409Z,28.97
2019-04-25T17:41:01.749Z,32.17
2019-04-25T17:42:38.937Z,27.43
2019-04-25T17:44:15.528Z,26.70
2019-04-25T17:45:52.027Z,25.00
2019-04-25T17:47:28.307Z,26.43
2019-04-25T17:49:05.253Z,27.13
2019-04-25T17:50:43.861Z,28.00
2019-04-25T17:52:20.137Z,27.97
2019-04-25T17:53:56.715Z,29.80
2019-04-25T17:55:33.333Z,29.17
2019-04-25T17:57:09.945Z,31.43
2019-04-25T17:58:46.408Z,26.17
2019-04-25T18:00:25.391Z,24.50
2019-04-25T18:02:01.767Z,25.50
2019-04-25T18:03:39.419Z,31.80
2019-04-25T18:05:16.091Z,26.00
2019-04-25T18:06:52.512Z,31.43
2019-04-25T18:08:28.901Z,29.70
2019-04-25T18:10:08.259Z,27.73
2019-04-25T18:11:45.345Z,26.13
2019-04-25T18:13:21.935Z,25.50
2019-04-25T18:15:00.008Z,28.50
2019-04-25T18:16:44.859Z,29.97
2019-04-25T18:18:23.019Z,28.50
2019-04-25T18:20:01.002Z,25.93
2019-04-25T18:21:38.493Z,32.40
2019-04-25T18:23:16.590Z,31.80
2019-04-25T18:24:57.712Z,26.23
2019-04-25T18:26:35.235Z,25.40
2019-04-25T18:28:19.421Z,30.93
2019-04-25T18:29:55.691Z,24.50
2019-04-25T18:31:32.317Z,26.33
2019-04-25T18:33:14.548Z,22.47
2019-04-25T18:35:07.659Z,31.13
2019-04-25T18:36:53.231Z,26.23
2019-04-25T18:38:41.648Z,25.27
2019-04-25T18:40:27.180Z,27.90
2019-04-25T18:42:08.213Z,22.40
2019-04-25T18:43:48.951Z,27.47
2019-04-25T18:45:26.946Z,22.97
2019-04-25T18:47:03.207Z,22.17
2019-04-25T18:48:39.553Z,26.90
2019-04-25T18:50:17.723Z,32.50
2019-04-25T18:51:58.095Z,29.77
2019-04-25T18:53:39.176Z,22.53
2019-04-25T18:55:26.706Z,33.37
2019-04-25T18:57:20.684Z,28.17
2019-04-25T18:58:58.841Z,27.23
2019-04-25T19:00:43.945Z,33.00
2019-04-25T19:02:25.828Z,27.83
2019-04-25T19:04:10.788Z,34.83
2019-04-25T19:05:54.501Z,29.50
2019-04-25T19:07:31.450Z,28.77
2019-04-25T19:09:11.976Z,28.90
2019-04-25T19:10:48.382Z,35.60
2019-04-25T19:12:24.824Z,34.20
2019-04-25T19:14:01.165Z,39.40
2019-04-25T19:15:39.714Z,36.20
2019-04-25T19:17:16.420Z,43.83
2019-04-25T19:18:52.731Z,30.67
2019-04-25T19:20:29.146Z,40.43
2019-04-25T19:22:05.560Z,30.63
2019-04-25T19:23:42.298Z,33.13
2019-04-25T19:25:18.877Z,28.70
2019-04-25T19:26:55.246Z,24.97
2019-04-25T19:28:31.520Z,27.33
2019-04-25T19:30:11.169Z,29.60
2019-04-25T19:31:48.343Z,28.20
2019-04-25T19:33:34.973Z,24.13
2019-04-25T19:35:02.907Z,24.40
2019-04-25T19:36:41.483Z,32.37
2019-04-25T19:38:18.992Z,29.90
2019-04-25T19:40:12.045Z,25.33
2019-04-25T19:42:06.008Z,28.17
2019-04-25T19:43:42.500Z,31.27
2019-04-25T19:45:18.984Z,25.80
2019-04-25T19:46:55.325Z,31.60
2019-04-25T19:48:31.922Z,30.87
2019-04-25T19:50:08.614Z,30.30
2019-04-25T19:52:04.487Z,27.97
2019-04-25T19:53:43.456Z,32.80
2019-04-25T19:55:20.183Z,28.27
2019-04-25T19:56:56.756Z,32.13
2019-04-25T19:58:34.739Z,34.67
2019-04-25T20:00:11.520Z,37.33
2019-04-25T20:01:48.741Z,28.97
2019-04-25T20:03:49.134Z,30.27
2019-04-25T20:05:19.238Z,30.23
2019-04-25T20:07:10.445Z,30.03
2019-04-25T20:08:51.294Z,32.10
2019-04-25T20:10:29.576Z,32.90
2019-04-25T20:12:06.202Z,33.03
2019-04-25T20:13:45.467Z,28.67
2019-04-25T20:15:23.081Z,28.37
2019-04-25T20:16:59.512Z,33.57
2019-04-25T20:18:36.864Z,33.63
2019-04-25T20:20:14.051Z,33.20
2019-04-25T20:21:50.472Z,29.40
2019-04-25T20:23:26.976Z,32.03
2019-04-25T20:25:03.965Z,33.20
2019-04-25T20:26:40.596Z,26.57
2019-04-25T20:28:16.918Z,28.67
2019-04-25T20:29:54.557Z,29.30
2019-04-25T20:31:31.281Z,27.27
2019-04-25T20:33:08.072Z,31.83
2019-04-25T20:34:44.618Z,24.53
2019-04-25T20:36:21.992Z,24.57
2019-04-25T20:37:58.440Z,26.70
2019-04-25T20:39:35.190Z,26.93
2019-04-25T20:41:12.153Z,24.13
2019-04-25T20:42:48.655Z,27.60
2019-04-25T20:44:25.099Z,29.47
2019-04-25T20:46:01.483Z,35.20
2019-04-25T20:47:38.011Z,24.00
2019-04-25T20:49:14.812Z,28.10
2019-04-25T20:50:51.251Z,28.87
2019-04-25T20:52:27.691Z,36.00
2019-04-25T20:54:04.068Z,33.73
2019-04-25T20:55:40.936Z,26.07
2019-04-25T20:57:18.434Z,25.90
2019-04-25T20:58:55.600Z,32.10
2019-04-25T21:00:45.239Z,26.57
2019-04-25T21:02:21.622Z,32.37
2019-04-25T21:04:35.585Z,26.10
2019-04-25T21:06:13.753Z,29.53
2019-04-25T21:07:51.250Z,30.03
2019-04-25T21:09:28.380Z,31.40